sensor_id;sensor_type;location;lat;lon;timestamp;pressure;altitude;pressure_sealevel;temperature;humidity
75036;BME280;64247;51.540;5.854;2023-03-21T00:01:00;101389.50;;;9.09;100.00
75036;BME280;64247;51.540;5.854;2023-03-21T00:03:04;101383.31;;;9.00;100.00
75036;BME280;64247;51.540;5.854;2023-03-21T00:05:05;101382.63;;;8.77;100.00
75036;BME280;64247;51.540;5.854;2023-03-21T00:07:07;101388.47;;;8.61;100.00
75036;BME280;64247;51.540;5.854;2023-03-21T00:09:07;101389.97;;;8.45;100.00
75036;BME280;64247;51.540;5.854;2023-03-21T00:11:10;101385.31;;;8.36;100.00
75036;BME280;64247;51.540;5.854;2023-03-21T00:13:14;101368.91;;;8.33;100.00
75036;BME280;64247;51.540;5.854;2023-03-21T00:15:15;101382.16;;;8.34;100.00
75036;BME280;64247;51.540;5.854;2023-03-21T00:17:17;101372.91;;;8.35;100.00
75036;BME280;64247;51.540;5.854;2023-03-21T00:19:21;101374.16;;;8.29;100.00
75036;BME280;64247;51.540;5.854;2023-03-21T00:21:25;101377.97;;;8.28;100.00
75036;BME280;64247;51.540;5.854;2023-03-21T00:23:32;101374.66;;;8.31;100.00
75036;BME280;64247;51.540;5.854;2023-03-21T00:25:33;101366.69;;;8.35;100.00
75036;BME280;64247;51.540;5.854;2023-03-21T00:27:33;101360.91;;;8.50;100.00
75036;BME280;64247;51.540;5.854;2023-03-21T00:29:34;101357.09;;;8.51;100.00
75036;BME280;64247;51.540;5.854;2023-03-21T00:31:35;101360.13;;;8.50;100.00
75036;BME280;64247;51.540;5.854;2023-03-21T00:33:37;101349.13;;;8.55;100.00
75036;BME280;64247;51.540;5.854;2023-03-21T00:35:40;101352.94;;;8.54;100.00
75036;BME280;64247;51.540;5.854;2023-03-21T00:37:47;101349.47;;;8.53;100.00
75036;BME280;64247;51.540;5.854;2023-03-21T00:39:50;101350.56;;;8.52;100.00
75036;BME280;64247;51.540;5.854;2023-03-21T00:41:52;101347.88;;;8.52;100.00
75036;BME280;64247;51.540;5.854;2023-03-21T00:43:53;101357.88;;;8.52;100.00
75036;BME280;64247;51.540;5.854;2023-03-21T00:45:56;101351.34;;;8.53;100.00
75036;BME280;64247;51.540;5.854;2023-03-21T00:47:58;101350.56;;;8.52;100.00
75036;BME280;64247;51.540;5.854;2023-03-21T00:49:59;101342.13;;;8.54;100.00
75036;BME280;64247;51.540;5.854;2023-03-21T00:52:00;101349.13;;;8.55;100.00
75036;BME280;64247;51.540;5.854;2023-03-21T00:54:01;101345.63;;;8.54;100.00
75036;BME280;64247;51.540;5.854;2023-03-21T00:56:05;101337.22;;;8.56;100.00
75036;BME280;64247;51.540;5.854;2023-03-21T00:58:06;101339.91;;;8.56;100.00
75036;BME280;64247;51.540;5.854;2023-03-21T01:00:08;101333.22;;;8.53;100.00
75036;BME280;64247;51.540;5.854;2023-03-21T01:02:11;101326.38;;;8.56;100.00
75036;BME280;64247;51.540;5.854;2023-03-21T01:04:21;101325.88;;;8.54;100.00
75036;BME280;64247;51.540;5.854;2023-03-21T01:06:26;101318.88;;;8.53;100.00
75036;BME280;64247;51.540;5.854;2023-03-21T01:08:27;101319.69;;;8.53;100.00
75036;BME280;64247;51.540;5.854;2023-03-21T01:10:28;101316.34;;;8.57;100.00
75036;BME280;64247;51.540;5.854;2023-03-21T01:12:29;101320.31;;;8.59;100.00
75036;BME280;64247;51.540;5.854;2023-03-21T01:14:29;101320.03;;;8.61;100.00
75036;BME280;64247;51.540;5.854;2023-03-21T01:16:31;101322.41;;;8.62;100.00
75036;BME280;64247;51.540;5.854;2023-03-21T01:18:33;101312.38;;;8.63;100.00
75036;BME280;64247;51.540;5.854;2023-03-21T01:20:36;101311.25;;;8.64;100.00
75036;BME280;64247;51.540;5.854;2023-03-21T01:22:40;101311.25;;;8.64;100.00
75036;BME280;64247;51.540;5.854;2023-03-21T01:24:41;101312.84;;;8.65;100.00
75036;BME280;64247;51.540;5.854;2023-03-21T01:26:42;101301.69;;;8.66;100.00
75036;BME280;64247;51.540;5.854;2023-03-21T01:28:43;101304.56;;;8.70;100.00
75036;BME280;64247;51.540;5.854;2023-03-21T01:30:46;101297.28;;;8.70;100.00
75036;BME280;64247;51.540;5.854;2023-03-21T01:32:49;101301.09;;;8.69;100.00
75036;BME280;64247;51.540;5.854;2023-03-21T01:34:50;101299.66;;;8.72;100.00
75036;BME280;64247;51.540;5.854;2023-03-21T01:36:51;101288.34;;;8.70;100.00
75036;BME280;64247;51.540;5.854;2023-03-21T01:38:54;101279.28;;;8.75;100.00
75036;BME280;64247;51.540;5.854;2023-03-21T01:40:55;101286.78;;;8.78;100.00
75036;BME280;64247;51.540;5.854;2023-03-21T01:43:00;101277.69;;;8.82;100.00
75036;BME280;64247;51.540;5.854;2023-03-21T01:45:05;101285.16;;;8.85;100.00
75036;BME280;64247;51.540;5.854;2023-03-21T01:47:26;101279.44;;;8.87;100.00
75036;BME280;64247;51.540;5.854;2023-03-21T01:50:01;101282.94;;;8.87;100.00
75036;BME280;64247;51.540;5.854;2023-03-21T01:52:15;101275.31;;;8.81;100.00
75036;BME280;64247;51.540;5.854;2023-03-21T01:54:29;101276.72;;;8.78;100.00
75036;BME280;64247;51.540;5.854;2023-03-21T01:56:36;101273.56;;;8.76;100.00
75036;BME280;64247;51.540;5.854;2023-03-21T01:58:42;101264.63;;;8.76;100.00
75036;BME280;64247;51.540;5.854;2023-03-21T02:01:02;101269.41;;;8.79;100.00
75036;BME280;64247;51.540;5.854;2023-03-21T02:03:16;101266.38;;;8.80;100.00
75036;BME280;64247;51.540;5.854;2023-03-21T02:05:51;101256.03;;;8.82;100.00
75036;BME280;64247;51.540;5.854;2023-03-21T02:08:07;101265.75;;;8.83;100.00
75036;BME280;64247;51.540;5.854;2023-03-21T02:10:11;101261.44;;;8.82;100.00
75036;BME280;64247;51.540;5.854;2023-03-21T02:12:18;101257.63;;;8.83;100.00
75036;BME280;64247;51.540;5.854;2023-03-21T02:14:20;101261.59;;;8.86;100.00
75036;BME280;64247;51.540;5.854;2023-03-21T02:17:14;101258.56;;;8.87;100.00
75036;BME280;64247;51.540;5.854;2023-03-21T02:20:09;101234.69;;;8.90;100.00
75036;BME280;64247;51.540;5.854;2023-03-21T02:29:01;101237.06;;;8.91;100.00
75036;BME280;64247;51.540;5.854;2023-03-21T02:31:43;101233.09;;;8.89;100.00
75036;BME280;64247;51.540;5.854;2023-03-21T02:37:31;101224.50;;;8.86;100.00
75036;BME280;64247;51.540;5.854;2023-03-21T02:40:22;101212.56;;;8.87;100.00
75036;BME280;64247;51.540;5.854;2023-03-21T02:48:14;101220.34;;;8.89;100.00
75036;BME280;64247;51.540;5.854;2023-03-21T02:50:41;101214.63;;;8.91;100.00
75036;BME280;64247;51.540;5.854;2023-03-21T02:52:53;101204.75;;;8.86;100.00
75036;BME280;64247;51.540;5.854;2023-03-21T02:54:56;101209.06;;;8.87;100.00
75036;BME280;64247;51.540;5.854;2023-03-21T02:57:05;101203.66;;;8.87;100.00
75036;BME280;64247;51.540;5.854;2023-03-21T02:59:08;101205.25;;;8.88;100.00
75036;BME280;64247;51.540;5.854;2023-03-21T03:01:09;101208.25;;;8.86;100.00
75036;BME280;64247;51.540;5.854;2023-03-21T03:03:15;101209.84;;;8.87;100.00
75036;BME280;64247;51.540;5.854;2023-03-21T03:05:20;101208.25;;;8.86;100.00
75036;BME280;64247;51.540;5.854;2023-03-21T03:07:34;101209.84;;;8.87;100.00
75036;BME280;64247;51.540;5.854;2023-03-21T03:10:28;101205.88;;;8.85;100.00
75036;BME280;64247;51.540;5.854;2023-03-21T03:18:49;101209.06;;;8.69;100.00
75036;BME280;64247;51.540;5.854;2023-03-21T03:23:56;101196.66;;;8.77;100.00
75036;BME280;64247;51.540;5.854;2023-03-21T03:29:23;101194.56;;;8.83;100.00
75036;BME280;64247;51.540;5.854;2023-03-21T03:31:35;101192.19;;;8.81;100.00
75036;BME280;64247;51.540;5.854;2023-03-21T03:33:44;101184.38;;;8.80;100.00
75036;BME280;64247;51.540;5.854;2023-03-21T03:35:49;101186.75;;;8.81;100.00
75036;BME280;64247;51.540;5.854;2023-03-21T03:37:56;101188.69;;;8.81;100.00
75036;BME280;64247;51.540;5.854;2023-03-21T03:40:27;101187.88;;;8.80;100.00
75036;BME280;64247;51.540;5.854;2023-03-21T03:42:49;101186.59;;;8.78;100.00
75036;BME280;64247;51.540;5.854;2023-03-21T03:45:06;101185.34;;;8.75;100.00
75036;BME280;64247;51.540;5.854;2023-03-21T03:47:15;101185.50;;;8.79;100.00
75036;BME280;64247;51.540;5.854;2023-03-21T03:49:28;101189.81;;;8.80;100.00
75036;BME280;64247;51.540;5.854;2023-03-21T03:52:00;101186.59;;;8.78;100.00
75036;BME280;64247;51.540;5.854;2023-03-21T03:54:39;101184.69;;;8.69;100.00
75036;BME280;64247;51.540;5.854;2023-03-21T03:56:44;101188.03;;;8.66;100.00
75036;BME280;64247;51.540;5.854;2023-03-21T03:58:46;101183.13;;;8.60;100.00
75036;BME280;64247;51.540;5.854;2023-03-21T04:00:53;101186.16;;;8.58;100.00
75036;BME280;64247;51.540;5.854;2023-03-21T04:02:55;101183.25;;;8.54;100.00
75036;BME280;64247;51.540;5.854;2023-03-21T04:05:01;101180.41;;;8.51;100.00
75036;BME280;64247;51.540;5.854;2023-03-21T04:07:04;101182.16;;;8.47;100.00
75036;BME280;64247;51.540;5.854;2023-03-21T04:09:05;101185.16;;;8.45;100.00
75036;BME280;64247;51.540;5.854;2023-03-21T04:11:10;101187.06;;;8.45;100.00
75036;BME280;64247;51.540;5.854;2023-03-21T04:13:19;101185.78;;;8.42;100.00
75036;BME280;64247;51.540;5.854;2023-03-21T04:15:39;101181.19;;;8.43;100.00
75036;BME280;64247;51.540;5.854;2023-03-21T04:17:47;101172.41;;;8.46;100.00
75036;BME280;64247;51.540;5.854;2023-03-21T04:19:47;101175.94;;;8.46;100.00
75036;BME280;64247;51.540;5.854;2023-03-21T04:21:52;101174.34;;;8.45;100.00
75036;BME280;64247;51.540;5.854;2023-03-21T04:23:53;101173.22;;;8.46;100.00
75036;BME280;64247;51.540;5.854;2023-03-21T04:25:55;101174.03;;;8.47;100.00
75036;BME280;64247;51.540;5.854;2023-03-21T04:27:56;101168.63;;;8.47;100.00
75036;BME280;64247;51.540;5.854;2023-03-21T04:30:08;101163.22;;;8.47;100.00
75036;BME280;64247;51.540;5.854;2023-03-21T04:32:25;101168.94;;;8.45;100.00
75036;BME280;64247;51.540;5.854;2023-03-21T04:34:43;101172.75;;;8.44;100.00
75036;BME280;64247;51.540;5.854;2023-03-21T04:36:49;101156.84;;;8.43;100.00
75036;BME280;64247;51.540;5.854;2023-03-21T04:38:55;101164.13;;;8.42;100.00
75036;BME280;64247;51.540;5.854;2023-03-21T04:41:01;101160.16;;;8.39;100.00
75036;BME280;64247;51.540;5.854;2023-03-21T04:43:03;101150.13;;;8.40;100.00
75036;BME280;64247;51.540;5.854;2023-03-21T04:45:05;101146.63;;;8.39;100.00
75036;BME280;64247;51.540;5.854;2023-03-21T04:47:07;101151.28;;;8.39;100.00
75036;BME280;64247;51.540;5.854;2023-03-21T04:49:08;101150.13;;;8.40;100.00
75036;BME280;64247;51.540;5.854;2023-03-21T04:51:10;101140.44;;;8.39;100.00
75036;BME280;64247;51.540;5.854;2023-03-21T04:53:11;101139.31;;;8.40;100.00
75036;BME280;64247;51.540;5.854;2023-03-21T04:55:12;101136.94;;;8.38;100.00
75036;BME280;64247;51.540;5.854;2023-03-21T04:57:14;101135.34;;;8.37;100.00
75036;BME280;64247;51.540;5.854;2023-03-21T04:59:15;101137.25;;;8.37;100.00
75036;BME280;64247;51.540;5.854;2023-03-21T05:01:17;101140.59;;;8.34;100.00
75036;BME280;64247;51.540;5.854;2023-03-21T05:03:20;101142.03;;;8.22;100.00
75036;BME280;64247;51.540;5.854;2023-03-21T05:05:22;101132.00;;;8.23;100.00
75036;BME280;64247;51.540;5.854;2023-03-21T05:07:25;101136.78;;;8.26;100.00
75036;BME280;64247;51.540;5.854;2023-03-21T05:09:27;101134.69;;;8.32;100.00
75036;BME280;64247;51.540;5.854;2023-03-21T05:11:28;101142.19;;;8.35;100.00
75036;BME280;64247;51.540;5.854;2023-03-21T05:13:31;101148.06;;;8.28;100.00
75036;BME280;64247;51.540;5.854;2023-03-21T05:15:32;101141.06;;;8.18;100.00
75036;BME280;64247;51.540;5.854;2023-03-21T05:17:33;101143.44;;;8.20;100.00
75036;BME280;64247;51.540;5.854;2023-03-21T05:19:34;101138.69;;;8.26;100.00
75036;BME280;64247;51.540;5.854;2023-03-21T05:21:35;101135.84;;;8.31;100.00
75036;BME280;64247;51.540;5.854;2023-03-21T05:23:55;101132.47;;;8.34;100.00
75036;BME280;64247;51.540;5.854;2023-03-21T05:25:57;101141.06;;;8.36;100.00
75036;BME280;64247;51.540;5.854;2023-03-21T05:28:10;101139.63;;;8.38;100.00
75036;BME280;64247;51.540;5.854;2023-03-21T05:30:15;101133.13;;;8.39;100.00
75036;BME280;64247;51.540;5.854;2023-03-21T05:32:19;101129.63;;;8.39;100.00
75036;BME280;64247;51.540;5.854;2023-03-21T05:34:21;101128.50;;;8.40;100.00
75036;BME280;64247;51.540;5.854;2023-03-21T05:36:22;101121.97;;;8.41;100.00
75036;BME280;64247;51.540;5.854;2023-03-21T05:38:24;101120.84;;;8.42;100.00
75036;BME280;64247;51.540;5.854;2023-03-21T05:40:27;101116.72;;;8.45;100.00
75036;BME280;64247;51.540;5.854;2023-03-21T05:42:31;101116.41;;;8.46;100.00
75036;BME280;64247;51.540;5.854;2023-03-21T05:44:32;101120.41;;;8.49;100.00
75036;BME280;64247;51.540;5.854;2023-03-21T05:46:58;101113.91;;;8.50;100.00
75036;BME280;64247;51.540;5.854;2023-03-21T05:49:10;101112.13;;;8.54;100.00
75036;BME280;64247;51.540;5.854;2023-03-21T05:51:12;101111.50;;;8.57;100.00
75036;BME280;64247;51.540;5.854;2023-03-21T05:53:13;101118.19;;;8.60;100.00
75036;BME280;64247;51.540;5.854;2023-03-21T05:55:15;101110.22;;;8.63;100.00
75036;BME280;64247;51.540;5.854;2023-03-21T05:57:16;101114.19;;;8.66;100.00
75036;BME280;64247;51.540;5.854;2023-03-21T05:59:28;101113.56;;;8.69;100.00
75036;BME280;64247;51.540;5.854;2023-03-21T06:01:30;101115.59;;;8.72;100.00
75036;BME280;64247;51.540;5.854;2023-03-21T06:03:41;101112.56;;;8.74;100.00
75036;BME280;64247;51.540;5.854;2023-03-21T06:05:49;101123.38;;;8.74;100.00
75036;BME280;64247;51.540;5.854;2023-03-21T06:07:55;101126.56;;;8.76;100.00
75036;BME280;64247;51.540;5.854;2023-03-21T06:09:56;101121.16;;;8.76;100.00
75036;BME280;64247;51.540;5.854;2023-03-21T06:11:57;101120.88;;;8.77;100.00
75036;BME280;64247;51.540;5.854;2023-03-21T06:14:19;101120.19;;;8.80;100.00
75036;BME280;64247;51.540;5.854;2023-03-21T06:16:38;101114.59;;;8.85;100.00
75036;BME280;64247;51.540;5.854;2023-03-21T06:18:39;101119.72;;;8.87;100.00
75036;BME280;64247;51.540;5.854;2023-03-21T06:21:04;101116.34;;;8.90;100.00
75036;BME280;64247;51.540;5.854;2023-03-21T06:23:06;101122.25;;;8.92;100.00
75036;BME280;64247;51.540;5.854;2023-03-21T06:25:08;101126.22;;;8.95;100.00
75036;BME280;64247;51.540;5.854;2023-03-21T06:27:09;101122.06;;;8.97;100.00
75036;BME280;64247;51.540;5.854;2023-03-21T06:29:30;101120.31;;;9.01;100.00
75036;BME280;64247;51.540;5.854;2023-03-21T06:31:31;101125.06;;;9.05;100.00
75036;BME280;64247;51.540;5.854;2023-03-21T06:33:36;101113.94;;;9.06;100.00
75036;BME280;64247;51.540;5.854;2023-03-21T06:35:36;101120.63;;;9.09;100.00
75036;BME280;64247;51.540;5.854;2023-03-21T06:37:37;101118.38;;;9.11;100.00
75036;BME280;64247;51.540;5.854;2023-03-21T06:39:38;101123.13;;;9.14;100.00
75036;BME280;64247;51.540;5.854;2023-03-21T06:41:39;101120.13;;;9.15;100.00
75036;BME280;64247;51.540;5.854;2023-03-21T06:43:41;101124.72;;;9.15;100.00
75036;BME280;64247;51.540;5.854;2023-03-21T06:45:43;101123.13;;;9.14;100.00
75036;BME280;64247;51.540;5.854;2023-03-21T06:47:45;101121.38;;;9.18;100.00
75036;BME280;64247;51.540;5.854;2023-03-21T06:49:57;101125.84;;;9.23;100.00
75036;BME280;64247;51.540;5.854;2023-03-21T06:51:58;101128.34;;;9.28;100.00
75036;BME280;64247;51.540;5.854;2023-03-21T06:54:00;101127.53;;;9.27;100.00
75036;BME280;64247;51.540;5.854;2023-03-21T06:56:10;101121.50;;;9.30;100.00
75036;BME280;64247;51.540;5.854;2023-03-21T06:58:14;101121.00;;;9.37;100.00
75036;BME280;64247;51.540;5.854;2023-03-21T07:00:16;101121.59;;;9.43;100.00
75036;BME280;64247;51.540;5.854;2023-03-21T07:02:20;101127.94;;;9.47;100.00
75036;BME280;64247;51.540;5.854;2023-03-21T07:04:33;101122.19;;;9.48;100.00
75036;BME280;64247;51.540;5.854;2023-03-21T07:06:35;101124.06;;;9.57;100.00
75036;BME280;64247;51.540;5.854;2023-03-21T07:08:39;101125.47;;;9.63;100.00
75036;BME280;64247;51.540;5.854;2023-03-21T07:10:42;101126.94;;;9.60;100.00
75036;BME280;64247;51.540;5.854;2023-03-21T07:12:44;101123.44;;;9.60;100.00
75036;BME280;64247;51.540;5.854;2023-03-21T07:14:50;101130.91;;;9.63;100.00
75036;BME280;64247;51.540;5.854;2023-03-21T07:16:51;101130.09;;;9.62;100.00
75036;BME280;64247;51.540;5.854;2023-03-21T07:18:52;101129.31;;;9.62;100.00
75036;BME280;64247;51.540;5.854;2023-03-21T07:20:53;101122.59;;;9.68;100.00
75036;BME280;64247;51.540;5.854;2023-03-21T07:22:54;101119.06;;;9.68;100.00
75036;BME280;64247;51.540;5.854;2023-03-21T07:24:55;101129.44;;;9.65;100.00
75036;BME280;64247;51.540;5.854;2023-03-21T07:26:57;101133.28;;;9.64;100.00
75036;BME280;64247;51.540;5.854;2023-03-21T07:28:59;101130.72;;;9.68;100.00
75036;BME280;64247;51.540;5.854;2023-03-21T07:31:03;101137.25;;;9.67;100.00
75036;BME280;64247;51.540;5.854;2023-03-21T07:33:06;101139.97;;;9.67;100.00
75036;BME280;64247;51.540;5.854;2023-03-21T07:35:11;101135.19;;;9.64;100.00
75036;BME280;64247;51.540;5.854;2023-03-21T07:37:15;101138.72;;;9.64;100.00
75036;BME280;64247;51.540;5.854;2023-03-21T07:39:16;101144.44;;;9.63;100.00
75036;BME280;64247;51.540;5.854;2023-03-21T07:41:17;101147.00;;;9.59;100.00
75036;BME280;64247;51.540;5.854;2023-03-21T07:43:18;101146.09;;;9.55;100.00
75036;BME280;64247;51.540;5.854;2023-03-21T07:45:20;101145.00;;;9.47;100.00
75036;BME280;64247;51.540;5.854;2023-03-21T07:47:23;101149.97;;;9.45;100.00
75036;BME280;64247;51.540;5.854;2023-03-21T07:49:23;101152.53;;;9.42;100.00
75036;BME280;64247;51.540;5.854;2023-03-21T07:51:26;101154.28;;;9.38;100.00
75036;BME280;64247;51.540;5.854;2023-03-21T07:53:27;101157.31;;;9.36;100.00
75036;BME280;64247;51.540;5.854;2023-03-21T07:55:27;101159.88;;;9.32;100.00
75036;BME280;64247;51.540;5.854;2023-03-21T07:57:29;101160.69;;;9.33;100.00
75036;BME280;64247;51.540;5.854;2023-03-21T07:59:30;101151.44;;;9.34;100.00
75036;BME280;64247;51.540;5.854;2023-03-21T08:01:31;101161.78;;;9.32;100.00
75036;BME280;64247;51.540;5.854;2023-03-21T08:03:31;101156.06;;;9.33;100.00
75036;BME280;64247;51.540;5.854;2023-03-21T08:05:34;101156.72;;;9.30;100.00
75036;BME280;64247;51.540;5.854;2023-03-21T08:07:36;101159.59;;;9.25;100.00
75036;BME280;64247;51.540;5.854;2023-03-21T08:09:37;101158.78;;;9.25;100.00
75036;BME280;64247;51.540;5.854;2023-03-21T08:11:39;101156.56;;;9.27;100.00
75036;BME280;64247;51.540;5.854;2023-03-21T08:13:40;101148.09;;;9.28;100.00
75036;BME280;64247;51.540;5.854;2023-03-21T08:15:41;101153.66;;;9.32;100.00
75036;BME280;64247;51.540;5.854;2023-03-21T08:17:42;101150.50;;;9.30;100.00
75036;BME280;64247;51.540;5.854;2023-03-21T08:19:44;101145.25;;;9.25;100.00
75036;BME280;64247;51.540;5.854;2023-03-21T08:21:49;101143.34;;;9.25;100.00
75036;BME280;64247;51.540;5.854;2023-03-21T08:23:52;101139.81;;;9.25;100.00
75036;BME280;64247;51.540;5.854;2023-03-21T08:25:54;101148.44;;;9.27;100.00
75036;BME280;64247;51.540;5.854;2023-03-21T08:27:56;101137.56;;;9.35;100.00
75036;BME280;64247;51.540;5.854;2023-03-21T08:29:57;101131.31;;;9.44;100.00
75036;BME280;64247;51.540;5.854;2023-03-21T08:31:59;101130.94;;;9.54;100.00
75036;BME280;64247;51.540;5.854;2023-03-21T08:34:00;101127.41;;;9.62;100.00
75036;BME280;64247;51.540;5.854;2023-03-21T08:36:01;101118.28;;;9.67;100.00
75036;BME280;64247;51.540;5.854;2023-03-21T08:38:03;101120.31;;;9.70;100.00
75036;BME280;64247;51.540;5.854;2023-03-21T08:40:05;101115.38;;;9.72;100.00
75036;BME280;64247;51.540;5.854;2023-03-21T08:42:10;101107.72;;;9.74;100.00
75036;BME280;64247;51.540;5.854;2023-03-21T08:44:11;101113.63;;;9.76;100.00
75036;BME280;64247;51.540;5.854;2023-03-21T08:46:12;101110.44;;;9.74;100.00
75036;BME280;64247;51.540;5.854;2023-03-21T08:48:13;101110.09;;;9.76;100.00
75036;BME280;64247;51.540;5.854;2023-03-21T08:50:17;101107.53;;;9.79;100.00
75036;BME280;64247;51.540;5.854;2023-03-21T08:52:20;101100.50;;;9.78;100.00
75036;BME280;64247;51.540;5.854;2023-03-21T08:54:21;101100.50;;;9.78;100.00
75036;BME280;64247;51.540;5.854;2023-03-21T08:56:24;101098.59;;;9.79;100.00
75036;BME280;64247;51.540;5.854;2023-03-21T08:58:25;101105.28;;;9.81;100.00
75036;BME280;64247;51.540;5.854;2023-03-21T09:00:26;101091.38;;;9.83;100.00
75036;BME280;64247;51.540;5.854;2023-03-21T09:02:28;101094.22;;;9.87;100.00
75036;BME280;64247;51.540;5.854;2023-03-21T09:04:29;101093.59;;;9.90;100.00
75036;BME280;64247;51.540;5.854;2023-03-21T09:06:30;101094.50;;;9.94;100.00
75036;BME280;64247;51.540;5.854;2023-03-21T09:08:33;101102.78;;;9.97;100.00
75036;BME280;64247;51.540;5.854;2023-03-21T09:10:33;101104.31;;;10.07;100.00
75036;BME280;64247;51.540;5.854;2023-03-21T09:12:34;101107.59;;;10.13;100.00
75036;BME280;64247;51.540;5.854;2023-03-21T09:14:35;101098.47;;;10.18;100.00
75036;BME280;64247;51.540;5.854;2023-03-21T09:16:36;101100.53;;;10.21;100.00
75036;BME280;64247;51.540;5.854;2023-03-21T09:18:37;101098.72;;;10.25;100.00
75036;BME280;64247;51.540;5.854;2023-03-21T09:20:49;101091.84;;;10.27;100.00
75036;BME280;64247;51.540;5.854;2023-03-21T09:22:50;101094.25;;;10.29;100.00
75036;BME280;64247;51.540;5.854;2023-03-21T09:24:52;101099.34;;;10.30;100.00
75036;BME280;64247;51.540;5.854;2023-03-21T09:26:53;101085.75;;;10.30;100.00
75036;BME280;64247;51.540;5.854;2023-03-21T09:28:54;101086.53;;;10.31;100.00
75036;BME280;64247;51.540;5.854;2023-03-21T09:30:57;101085.13;;;10.34;100.00
75036;BME280;64247;51.540;5.854;2023-03-21T09:33:04;101078.22;;;10.36;100.00
75036;BME280;64247;51.540;5.854;2023-03-21T09:35:19;101081.56;;;10.42;100.00
75036;BME280;64247;51.540;5.854;2023-03-21T09:37:21;101079.09;;;10.49;100.00
75036;BME280;64247;51.540;5.854;2023-03-21T09:39:22;101080.13;;;10.57;100.00
75036;BME280;64247;51.540;5.854;2023-03-21T09:44:52;101074.19;;;10.76;100.00
75036;BME280;64247;51.540;5.854;2023-03-21T09:47:24;101067.19;;;10.87;100.00
75036;BME280;64247;51.540;5.854;2023-03-21T09:49:38;101072.16;;;10.98;100.00
75036;BME280;64247;51.540;5.854;2023-03-21T09:51:44;101062.00;;;11.07;100.00
75036;BME280;64247;51.540;5.854;2023-03-21T09:53:52;101057.47;;;11.11;100.00
75036;BME280;64247;51.540;5.854;2023-03-21T09:55:58;101060.09;;;11.20;100.00
75036;BME280;64247;51.540;5.854;2023-03-21T09:58:26;101059.97;;;11.29;100.00
75036;BME280;64247;51.540;5.854;2023-03-21T10:00:38;101057.59;;;11.27;100.00
75036;BME280;64247;51.540;5.854;2023-03-21T10:02:44;101059.28;;;11.32;100.00
75036;BME280;64247;51.540;5.854;2023-03-21T10:04:48;101051.25;;;11.35;100.00
75036;BME280;64247;51.540;5.854;2023-03-21T10:06:55;101047.81;;;11.38;100.00
75036;BME280;64247;51.540;5.854;2023-03-21T10:09:27;101053.94;;;11.48;100.00
75036;BME280;64247;51.540;5.854;2023-03-21T10:11:53;101031.97;;;11.53;100.00
75036;BME280;64247;51.540;5.854;2023-03-21T10:14:04;101035.00;;;11.64;100.00
75036;BME280;64247;51.540;5.854;2023-03-21T10:16:21;101029.44;;;11.72;98.23
75036;BME280;64247;51.540;5.854;2023-03-21T10:18:29;101036.56;;;11.77;98.92
75036;BME280;64247;51.540;5.854;2023-03-21T10:20:33;101028.59;;;11.84;97.36
75036;BME280;64247;51.540;5.854;2023-03-21T10:22:37;101030.66;;;11.87;97.15
75036;BME280;64247;51.540;5.854;2023-03-21T10:24:38;101024.84;;;11.89;97.58
75036;BME280;64247;51.540;5.854;2023-03-21T10:26:39;101026.53;;;11.94;96.55
75036;BME280;64247;51.540;5.854;2023-03-21T10:28:41;101022.50;;;11.87;96.01
75036;BME280;64247;51.540;5.854;2023-03-21T10:30:52;101023.28;;;11.88;96.25
75036;BME280;64247;51.540;5.854;2023-03-21T10:32:58;101026.25;;;11.83;95.41
75036;BME280;64247;51.540;5.854;2023-03-21T10:35:04;101024.19;;;11.80;95.93
75036;BME280;64247;51.540;5.854;2023-03-21T10:37:06;101019.44;;;11.77;96.30
75036;BME280;64247;51.540;5.854;2023-03-21T10:39:32;101010.03;;;11.74;95.58
75036;BME280;64247;51.540;5.854;2023-03-21T10:41:36;101018.44;;;11.69;96.16
75036;BME280;64247;51.540;5.854;2023-03-21T10:43:40;101016.88;;;11.68;97.10
75036;BME280;64247;51.540;5.854;2023-03-21T10:45:44;101020.41;;;11.68;95.95
75036;BME280;64247;51.540;5.854;2023-03-21T10:47:47;101016.75;;;11.64;96.75
75036;BME280;64247;51.540;5.854;2023-03-21T10:49:51;101017.22;;;11.66;97.60
75036;BME280;64247;51.540;5.854;2023-03-21T10:52:00;101004.97;;;11.72;97.16
75036;BME280;64247;51.540;5.854;2023-03-21T10:54:07;101004.72;;;11.78;96.97
75036;BME280;64247;51.540;5.854;2023-03-21T10:56:13;100995.78;;;11.77;96.83
75036;BME280;64247;51.540;5.854;2023-03-21T10:58:17;101004.22;;;11.88;97.28
75036;BME280;64247;51.540;5.854;2023-03-21T11:00:34;100995.13;;;11.96;95.47
75036;BME280;64247;51.540;5.854;2023-03-21T11:02:38;101000.38;;;11.89;94.02
75036;BME280;64247;51.540;5.854;2023-03-21T11:04:42;101006.16;;;11.87;93.53
75036;BME280;64247;51.540;5.854;2023-03-21T11:06:51;101007.28;;;11.99;94.99
75036;BME280;64247;51.540;5.854;2023-03-21T11:08:59;101007.75;;;12.17;92.71
75036;BME280;64247;51.540;5.854;2023-03-21T11:11:36;101008.75;;;12.25;91.41
75036;BME280;64247;51.540;5.854;2023-03-21T11:14:01;101010.09;;;12.31;91.58
75036;BME280;64247;51.540;5.854;2023-03-21T11:16:18;101009.72;;;12.32;92.20
75036;BME280;64247;51.540;5.854;2023-03-21T11:18:26;101017.78;;;12.29;90.26
75036;BME280;64247;51.540;5.854;2023-03-21T11:20:32;101024.38;;;12.28;90.18
75036;BME280;64247;51.540;5.854;2023-03-21T11:22:40;101014.78;;;12.18;89.68
75036;BME280;64247;51.540;5.854;2023-03-21T11:24:51;101015.63;;;12.06;90.58
75036;BME280;64247;51.540;5.854;2023-03-21T11:26:54;101013.00;;;12.10;89.44
75036;BME280;64247;51.540;5.854;2023-03-21T11:28:57;101006.38;;;12.23;90.47
75036;BME280;64247;51.540;5.854;2023-03-21T11:31:00;101006.94;;;12.45;88.65
75036;BME280;64247;51.540;5.854;2023-03-21T11:33:05;101001.41;;;12.57;88.88